Time;durP1;ratioP1;P1;durP2;ratioP2;P2;SDS_P1;SDS_P2;PMS_P1;PMS_P2;Temp;Humidity;BMP_temperature;BMP_pressure;BME280_temperature;BME280_humidity;BME280_pressure;Samples;Min_cycle;Max_cycle;Signal;HPM_P1;HPM_P2
2021/06/16 00:00:40;;;;;;;9.05;5.30;;;27.30;71.60;;;;;;11981299;28;20157;-79
2021/06/16 00:06:28;;;;;;;9.23;5.30;;;27.20;72.00;;;;;;11977575;28;20057;-80
2021/06/16 00:12:15;;;;;;;7.38;5.43;;;27.20;71.80;;;;;;11988856;28;20060;-79
2021/06/16 00:18:21;;;;;;;7.53;4.72;;;27.00;72.60;;;;;;12169869;23;20148;-77
2021/06/16 00:24:09;;;;;;;6.57;4.78;;;26.80;73.20;;;;;;11929740;28;20057;-78
2021/06/16 00:29:56;;;;;;;10.02;5.75;;;26.80;73.70;;;;;;11898333;28;20062;-78
2021/06/16 00:35:43;;;;;;;9.63;4.68;;;26.70;73.70;;;;;;11890788;28;20072;-78
2021/06/16 00:41:31;;;;;;;5.40;4.32;;;26.70;74.20;;;;;;11926020;28;20053;-76
2021/06/16 00:47:19;;;;;;;9.05;4.82;;;26.60;74.20;;;;;;11906078;28;20049;-78
2021/06/16 00:53:07;;;;;;;10.35;5.93;;;26.60;74.40;;;;;;11889707;28;20057;-78
2021/06/16 00:58:55;;;;;;;7.18;5.57;;;26.40;74.80;;;;;;11882177;28;20050;-78
2021/06/16 01:04:42;;;;;;;8.98;5.60;;;26.30;75.20;;;;;;11920447;28;20057;-77
2021/06/16 01:10:34;;;;;;;13.93;5.78;;;26.30;75.80;;;;;;11948909;28;20087;-79
2021/06/16 01:16:28;;;;;;;8.13;5.28;;;26.30;75.90;;;;;;11910755;28;20049;-80
2021/06/16 10:26:33;;;;;;;9.93;4.35;;;27.70;73.80;;;;;;12116002;27;20463;-52
2021/06/16 10:32:20;;;;;;;;;;;28.00;73.10;;;;;;12082742;28;20063;-53
2021/06/16 10:44:19;;;;;;;5.53;3.70;;;29.30;69.80;;;;;;12089389;27;20055;-56
2021/06/16 10:50:09;;;;;;;6.50;3.53;;;29.70;68.60;;;;;;12084728;27;20117;-55
2021/06/16 10:56:06;;;;;;;6.63;3.80;;;30.00;66.50;;;;;;12030961;28;20048;-52
2021/06/16 11:01:55;;;;;;;8.68;3.35;;;30.20;66.20;;;;;;12082521;28;20048;-53
2021/06/16 11:07:42;;;;;;;5.78;3.70;;;30.40;67.10;;;;;;12096265;28;20082;-55
2021/06/16 11:13:45;;;;;;;9.40;3.63;;;30.60;66.20;;;;;;12085390;27;20530;-54
2021/06/16 11:20:05;;;;;;;6.90;3.60;;;30.70;63.60;;;;;;12092469;28;20048;-54
2021/06/16 11:25:52;;;;;;;5.38;2.60;;;30.70;63.50;;;;;;12061487;28;20759;-55
2021/06/16 11:32:12;;;;;;;5.68;3.70;;;30.90;61.40;;;;;;12087310;28;20523;-53
2021/06/16 11:38:00;;;;;;;5.50;3.03;;;31.00;62.10;;;;;;12084310;28;20140;-55
2021/06/16 11:43:50;;;;;;;4.60;3.38;;;31.10;60.20;;;;;;12056656;28;20059;-55
2021/06/16 11:49:38;;;;;;;5.78;3.40;;;31.30;60.80;;;;;;12056762;28;20108;-54
2021/06/16 11:55:48;;;;;;;5.07;3.13;;;31.40;59.90;;;;;;12061612;28;20044;-56
2021/06/16 12:01:34;;;;;;;3.05;2.78;;;31.30;59.60;;;;;;12042873;28;20589;-52
2021/06/16 12:07:27;;;;;;;6.10;2.95;;;31.20;59.90;;;;;;12022374;28;20052;-52
2021/06/16 12:13:23;;;;;;;4.75;2.97;;;31.40;59.70;;;;;;12060434;28;20146;-54
2021/06/16 12:19:16;;;;;;;3.42;2.83;;;31.60;60.00;;;;;;12067474;27;20640;-54
2021/06/16 12:25:04;;;;;;;3.17;2.80;;;31.80;59.00;;;;;;12046708;28;20045;-52
2021/06/16 12:30:53;;;;;;;5.65;2.40;;;31.90;58.90;;;;;;12047765;28;20512;-52
2021/06/16 12:36:40;;;;;;;2.95;2.67;;;32.00;58.00;;;;;;12060664;28;20055;-54
2021/06/16 12:42:51;;;;;;;4.18;2.50;;;32.10;56.70;;;;;;12039876;28;20459;-55
2021/06/16 12:48:40;;;;;;;5.70;2.83;;;32.00;55.30;;;;;;12061135;27;20132;-55
2021/06/16 12:54:29;;;;;;;4.60;2.22;;;31.90;56.00;;;;;;12056648;28;20058;-55
2021/06/16 13:00:18;;;;;;;5.15;2.53;;;32.10;56.30;;;;;;12069758;28;20040;-55
2021/06/16 13:06:19;;;;;;;4.43;2.30;;;32.50;56.50;;;;;;12104221;28;20046;-53
2021/06/16 13:12:07;;;;;;;5.25;2.60;;;32.70;55.80;;;;;;12081027;28;20107;-54
2021/06/16 13:17:55;;;;;;;2.25;2.05;;;32.70;54.80;;;;;;12073076;28;20051;-54
2021/06/16 13:23:53;;;;;;;3.20;2.33;;;32.70;54.70;;;;;;12057635;28;20060;-52
2021/06/16 13:29:41;;;;;;;2.92;2.08;;;32.90;54.90;;;;;;12059373;28;20051;-56
2021/06/16 13:35:31;;;;;;;1.85;1.67;;;33.10;52.90;;;;;;12107774;27;20143;-54
2021/06/16 13:41:21;;;;;;;2.50;2.10;;;32.90;51.80;;;;;;12096206;27;20050;-55
2021/06/16 13:47:11;;;;;;;3.63;2.13;;;33.20;52.90;;;;;;12093173;28;20898;-56
2021/06/16 13:53:00;;;;;;;4.07;2.35;;;33.40;53.10;;;;;;12066055;28;20530;-55
2021/06/16 13:58:52;;;;;;;3.05;2.00;;;33.50;52.60;;;;;;12104925;27;20542;-57
2021/06/16 14:04:38;;;;;;;3.78;1.92;;;33.50;52.90;;;;;;12076774;28;20269;-56
2021/06/16 14:10:25;;;;;;;4.30;2.08;;;33.70;51.60;;;;;;12076789;28;20503;-56
2021/06/16 14:16:14;;;;;;;2.60;2.20;;;33.70;51.60;;;;;;12109664;28;20060;-55
2021/06/16 14:22:01;;;;;;;5.20;2.38;;;33.90;52.50;;;;;;12077372;28;20052;-53
2021/06/16 14:27:51;;;;;;;3.10;2.42;;;33.90;52.00;;;;;;12050256;28;20408;-56
2021/06/16 14:33:39;;;;;;;3.65;2.47;;;34.10;52.60;;;;;;12067550;28;20353;-57
2021/06/16 14:39:28;;;;;;;2.25;1.75;;;34.30;51.70;;;;;;12095967;28;20419;-57
2021/06/16 14:45:18;;;;;;;3.78;1.92;;;34.20;50.20;;;;;;12097801;28;20134;-53
2021/06/16 14:51:06;;;;;;;7.75;2.17;;;34.40;50.60;;;;;;12108765;28;20044;-57
2021/06/16 14:56:54;;;;;;;2.40;2.20;;;34.50;50.00;;;;;;12103816;28;20078;-57
2021/06/16 15:02:41;;;;;;;7.13;2.42;;;34.60;50.50;;;;;;12084524;28;20123;-57
2021/06/16 15:08:29;;;;;;;3.85;2.03;;;34.80;50.80;;;;;;12082150;28;20084;-57
2021/06/16 15:14:16;;;;;;;4.63;2.38;;;35.00;49.40;;;;;;12140784;28;20104;-57
2021/06/16 15:20:04;;;;;;;5.53;2.03;;;35.30;49.40;;;;;;12119639;28;20809;-57
2021/06/16 15:26:00;;;;;;;3.10;2.00;;;35.60;48.90;;;;;;12078192;28;20055;-56
2021/06/16 15:31:46;;;;;;;5.38;2.58;;;35.90;49.10;;;;;;12054838;28;20056;-56
2021/06/16 15:37:34;;;;;;;2.38;1.80;;;35.70;48.30;;;;;;12073554;28;20052;-54
2021/06/16 15:43:23;;;;;;;3.03;2.00;;;36.20;48.60;;;;;;12057841;28;20098;-57
2021/06/16 15:49:10;;;;;;;6.03;2.30;;;36.30;46.80;;;;;;12054985;28;20048;-57
2021/06/16 15:54:57;;;;;;;2.33;2.10;;;35.50;49.00;;;;;;12032025;28;20058;-57
2021/06/16 16:00:45;;;;;;;3.42;2.40;;;34.80;50.00;;;;;;12066936;27;20047;-56
2021/06/16 16:06:32;;;;;;;3.15;2.28;;;34.20;52.00;;;;;;12072019;27;20081;-55
2021/06/16 16:12:19;;;;;;;4.35;2.75;;;33.80;55.50;;;;;;12112195;28;20142;-55
2021/06/16 16:18:07;;;;;;;2.95;2.45;;;33.50;59.70;;;;;;12087811;28;20048;-54
2021/06/16 16:23:55;;;;;;;3.35;2.40;;;33.50;59.60;;;;;;12066300;27;20048;-56
2021/06/16 16:29:41;;;;;;;3.55;2.38;;;33.40;60.80;;;;;;12031462;27;20759;-55
2021/06/16 16:35:30;;;;;;;9.23;2.88;;;33.00;62.90;;;;;;12060809;28;20058;-56
2021/06/16 16:41:17;;;;;;;3.65;2.53;;;32.40;66.00;;;;;;12098197;28;20055;-57
2021/06/16 16:47:04;;;;;;;4.10;2.72;;;32.00;66.80;;;;;;12099449;27;20074;-56
2021/06/16 16:52:55;;;;;;;7.43;2.85;;;31.60;67.20;;;;;;12077303;27;20149;-55
2021/06/16 16:58:42;;;;;;;4.10;2.95;;;31.40;69.30;;;;;;12097149;28;20120;-57
2021/06/16 17:04:28;;;;;;;2.83;2.55;;;31.10;68.50;;;;;;12114879;27;20055;-56
2021/06/16 17:10:18;;;;;;;3.35;2.63;;;31.00;70.40;;;;;;12094813;27;20051;-56
2021/06/16 17:16:05;;;;;;;6.55;2.45;;;30.90;69.50;;;;;;12095660;28;20055;-55
2021/06/16 17:21:54;;;;;;;5.10;2.28;;;31.00;69.00;;;;;;12111099;28;20047;-54
2021/06/16 17:27:47;;;;;;;4.10;2.72;;;31.10;68.80;;;;;;12074942;28;20520;-57
2021/06/16 17:33:34;;;;;;;5.63;3.10;;;31.20;68.80;;;;;;12041397;28;20048;-57
2021/06/16 17:39:22;;;;;;;5.57;3.10;;;31.50;70.00;;;;;;12044177;28;21153;-57
2021/06/16 17:45:11;;;;;;;3.78;2.90;;;31.80;70.30;;;;;;12026159;28;23074;-53
2021/06/16 17:51:01;;;;;;;5.03;3.50;;;31.80;70.00;;;;;;12032977;28;20048;-54
2021/06/16 17:56:56;;;;;;;5.72;2.67;;;31.70;70.80;;;;;;12049624;28;20055;-57
2021/06/16 18:02:45;;;;;;;8.50;5.60;;;31.50;70.40;;;;;;12035142;28;20144;-61
2021/06/16 18:08:32;;;;;;;9.60;3.38;;;31.40;71.60;;;;;;12062801;28;20101;-61
2021/06/16 18:14:19;;;;;;;9.43;3.55;;;31.50;71.60;;;;;;12111965;22;20048;-79
2021/06/16 18:20:10;;;;;;;7.90;4.28;;;31.40;70.00;;;;;;12098249;28;20048;-78
2021/06/16 18:25:57;;;;;;;7.32;3.28;;;31.30;70.00;;;;;;12059982;28;20048;-77
2021/06/16 18:31:43;;;;;;;9.88;2.97;;;31.50;70.10;;;;;;12045718;28;20045;-78
2021/06/16 18:37:32;;;;;;;10.48;2.88;;;32.10;68.60;;;;;;12068064;28;20051;-76
2021/06/16 18:43:19;;;;;;;6.80;3.17;;;31.60;69.20;;;;;;12070006;28;20048;-79
2021/06/16 18:49:06;;;;;;;6.45;2.88;;;31.00;71.60;;;;;;12073096;28;20063;-79
2021/06/16 18:54:55;;;;;;;5.10;3.42;;;30.70;72.90;;;;;;12094937;27;20399;-79
2021/06/16 19:00:42;;;;;;;10.90;3.47;;;30.50;73.40;;;;;;12066330;28;20064;-78
2021/06/16 19:06:29;;;;;;;8.43;2.97;;;30.30;73.90;;;;;;12055263;28;20105;-79
2021/06/16 19:12:18;;;;;;;8.57;3.47;;;30.00;72.40;;;;;;12057859;28;20513;-78
2021/06/16 19:18:06;;;;;;;4.47;3.25;;;29.80;73.10;;;;;;12087009;28;20065;-77
2021/06/16 19:23:54;;;;;;;7.15;3.38;;;29.80;74.40;;;;;;12098380;27;20052;-77
2021/06/16 19:29:42;;;;;;;5.90;3.85;;;29.90;74.20;;;;;;12097870;27;20055;-77
2021/06/16 19:35:30;;;;;;;7.00;3.58;;;29.80;74.00;;;;;;12092599;27;20056;-77
2021/06/16 19:41:17;;;;;;;7.68;3.55;;;29.80;75.80;;;;;;12044671;28;20075;-77
2021/06/16 19:47:05;;;;;;;5.32;3.10;;;29.70;72.20;;;;;;12064471;27;20055;-78
2021/06/16 19:52:53;;;;;;;6.88;3.58;;;29.50;72.60;;;;;;12053304;27;20544;-78
2021/06/16 19:58:42;;;;;;;6.32;3.97;;;29.40;73.60;;;;;;12076057;28;20062;-77
2021/06/16 20:04:30;;;;;;;5.60;3.63;;;29.30;74.80;;;;;;12078891;28;20089;-77
2021/06/16 20:10:18;;;;;;;8.55;3.88;;;29.20;75.20;;;;;;12083445;27;20155;-78
2021/06/16 20:16:05;;;;;;;6.93;3.60;;;29.20;75.20;;;;;;12065534;28;20535;-77
2021/06/16 20:21:54;;;;;;;8.93;3.97;;;29.20;75.10;;;;;;12063445;27;20051;-77
2021/06/16 20:27:41;;;;;;;3.90;3.60;;;29.20;74.40;;;;;;12049259;27;20063;-77
2021/06/16 20:33:28;;;;;;;6.25;3.63;;;29.10;74.80;;;;;;12078969;27;20532;-78
2021/06/16 20:39:16;;;;;;;5.45;3.85;;;29.00;74.70;;;;;;12060914;27;21674;-77
2021/06/16 20:45:05;;;;;;;8.45;3.90;;;29.00;74.40;;;;;;12048620;28;20695;-77
2021/06/16 20:50:52;;;;;;;6.32;3.70;;;28.80;73.80;;;;;;12065792;28;20049;-77
2021/06/16 20:56:40;;;;;;;8.13;4.32;;;28.60;74.60;;;;;;12054436;28;20063;-80
2021/06/16 21:02:27;;;;;;;7.70;4.10;;;28.50;76.20;;;;;;12043628;28;20056;-77
2021/06/16 21:08:14;;;;;;;5.75;4.50;;;28.50;75.70;;;;;;12039255;28;20651;-78
2021/06/16 21:14:02;;;;;;;6.95;3.97;;;28.50;76.10;;;;;;12061478;28;22369;-76
2021/06/16 21:19:49;;;;;;;5.53;3.90;;;28.60;76.00;;;;;;12065789;27;20072;-76
2021/06/16 21:25:37;;;;;;;9.68;4.10;;;28.50;75.80;;;;;;12043346;28;20150;-77
2021/06/16 21:31:25;;;;;;;9.50;4.22;;;28.50;76.10;;;;;;12051213;28;20048;-77
2021/06/16 21:37:14;;;;;;;9.27;4.00;;;28.50;76.30;;;;;;12065806;28;20113;-78
2021/06/16 21:43:03;;;;;;;6.18;3.83;;;28.50;76.70;;;;;;12060409;28;20051;-77
2021/06/16 21:48:51;;;;;;;12.65;5.15;;;28.50;76.90;;;;;;12093535;27;20059;-77
2021/06/16 21:54:38;;;;;;;7.82;4.22;;;28.50;77.30;;;;;;12066974;28;20047;-77
2021/06/16 22:00:31;;;;;;;6.32;4.78;;;28.50;77.70;;;;;;12041489;28;20094;-77
2021/06/16 22:06:19;;;;;;;10.18;4.60;;;28.40;78.60;;;;;;12045361;28;20129;-76
2021/06/16 22:12:08;;;;;;;6.70;4.53;;;28.30;79.10;;;;;;12051795;28;20086;-76
2021/06/16 22:17:55;;;;;;;8.68;4.57;;;28.30;79.50;;;;;;12086779;28;20146;-76
2021/06/16 22:23:43;;;;;;;9.35;4.55;;;28.30;80.30;;;;;;12063907;28;20044;-78
2021/06/16 22:29:30;;;;;;;10.45;4.72;;;28.20;80.10;;;;;;12099546;28;20070;-78
2021/06/16 22:35:19;;;;;;;9.52;4.22;;;28.10;79.90;;;;;;12099786;28;20063;-77
2021/06/16 22:41:07;;;;;;;7.05;4.43;;;28.10;79.30;;;;;;12088224;28;20056;-78
2021/06/16 22:46:55;;;;;;;6.65;4.07;;;28.10;79.00;;;;;;12082799;28;20063;-77
2021/06/16 22:52:42;;;;;;;7.40;4.63;;;28.00;79.20;;;;;;12059307;28;20071;-78
2021/06/16 22:58:30;;;;;;;5.40;4.15;;;28.00;79.50;;;;;;12045618;28;20167;-77
2021/06/16 23:04:17;;;;;;;6.00;4.25;;;27.90;79.20;;;;;;12037617;28;20509;-77
2021/06/16 23:10:07;;;;;;;7.55;4.47;;;27.90;79.60;;;;;;12074899;28;20635;-76
2021/06/16 23:15:56;;;;;;;4.30;3.90;;;27.80;79.80;;;;;;12085720;28;20091;-76
2021/06/16 23:21:42;;;;;;;6.80;3.85;;;27.70;79.50;;;;;;12074435;28;20052;-78
2021/06/16 23:27:29;;;;;;;12.57;5.07;;;27.70;80.30;;;;;;12059463;28;20052;-78
2021/06/16 23:33:18;;;;;;;7.85;3.97;;;27.70;80.40;;;;;;12038116;28;20056;-78
2021/06/16 23:39:05;;;;;;;6.22;4.50;;;27.70;80.30;;;;;;12045187;28;20055;-78
2021/06/16 23:44:52;;;;;;;6.18;4.15;;;27.80;81.30;;;;;;12047819;28;20076;-78
2021/06/16 23:50:40;;;;;;;8.65;4.60;;;27.80;81.30;;;;;;12053367;28;20390;-78
